EDW5YW LIRF-LSZH
Flight info
| Callsign | EDW5YW |
|---|---|
| Flight time | 1h 26m |
| Altitude | 36000 |
| Route | SOVAN7A SOVAN DCT AMTEL DCT PEPAG DCT CANNE Z651 KELIP KELIP3G |
| Aircraft | A320/M-SDE3FGHIRWY/LB1 |
Departure
| Time | 2026-02-17 14:15 |
|---|---|
| Airport | Rome–Fiumicino Leonardo da Vinci International Airport (LIRF) |
Arrival
| Time | 2026-02-17 15:41 |
|---|---|
| Airport | Zürich Airport (LSZH) |
| Time | Latitude | Longitude | Altitude | Speed | Heading |
|---|---|---|---|---|---|
| 2026-02-17 13:56 | 41.79725 | 12.25640 | 19 ft | 0 kts | 297° |
| 2026-02-17 14:05 | 41.79721 | 12.25652 | 19 ft | 2 kts | 297° |
| 2026-02-17 14:06 | 41.79713 | 12.25672 | 20 ft | 2 kts | 297° |
| 2026-02-17 14:06 | 41.79702 | 12.25688 | 20 ft | 2 kts | 5° |
| 2026-02-17 14:06 | 41.79697 | 12.25688 | 19 ft | 0 kts | 21° |
| 2026-02-17 14:09 | 41.79703 | 12.25692 | 18 ft | 5 kts | 27° |
| 2026-02-17 14:09 | 41.79755 | 12.25729 | 18 ft | 9 kts | 28° |
| 2026-02-17 14:09 | 41.79806 | 12.25766 | 20 ft | 8 kts | 28° |
| 2026-02-17 14:10 | 41.79871 | 12.25813 | 21 ft | 14 kts | 28° |
| 2026-02-17 14:10 | 41.79976 | 12.25885 | 18 ft | 19 kts | 25° |
| 2026-02-17 14:10 | 41.80103 | 12.25962 | 16 ft | 21 kts | 24° |
| 2026-02-17 14:11 | 41.80379 | 12.26132 | 13 ft | 19 kts | 23° |
| 2026-02-17 14:11 | 41.80503 | 12.26207 | 15 ft | 20 kts | 40° |
| 2026-02-17 14:11 | 41.80563 | 12.26362 | 17 ft | 17 kts | 68° |
| 2026-02-17 14:11 | 41.80605 | 12.26505 | 14 ft | 16 kts | 68° |
| 2026-02-17 14:12 | 41.80644 | 12.26647 | 13 ft | 16 kts | 71° |
| 2026-02-17 14:12 | 41.80679 | 12.26783 | 11 ft | 15 kts | 71° |
| 2026-02-17 14:12 | 41.80717 | 12.26922 | 8 ft | 16 kts | 69° |
| 2026-02-17 14:12 | 41.80776 | 12.27029 | 9 ft | 13 kts | 19° |
| 2026-02-17 14:13 | 41.80858 | 12.27014 | 9 ft | 9 kts | 340° |
| 2026-02-17 14:13 | 41.80870 | 12.27008 | 9 ft | 0 kts | 340° |
| 2026-02-17 14:14 | 41.80880 | 12.27003 | 11 ft | 1 kts | 338° |
| 2026-02-17 14:14 | 41.80914 | 12.26984 | 9 ft | 6 kts | 337° |
| 2026-02-17 14:14 | 41.80953 | 12.26940 | 10 ft | 9 kts | 288° |
| 2026-02-17 14:15 | 41.80820 | 12.26422 | 16 ft | 82 kts | 249° |
| 2026-02-17 14:15 | 41.80550 | 12.25452 | 13 ft | 138 kts | 249° |
| 2026-02-17 14:15 | 41.80173 | 12.24129 | 360 ft | 153 kts | 255° |
| 2026-02-17 14:15 | 41.79807 | 12.22821 | 1005 ft | 149 kts | 256° |
| 2026-02-17 14:16 | 41.79463 | 12.21477 | 1535 ft | 160 kts | 263° |
| 2026-02-17 14:16 | 41.79578 | 12.19969 | 1846 ft | 174 kts | 301° |
| 2026-02-17 14:16 | 41.80551 | 12.18900 | 2115 ft | 199 kts | 341° |
| 2026-02-17 14:16 | 41.81981 | 12.18437 | 2489 ft | 224 kts | 346° |
| 2026-02-17 14:17 | 41.83575 | 12.17992 | 3071 ft | 241 kts | 347° |
| 2026-02-17 14:17 | 41.85242 | 12.17543 | 3919 ft | 246 kts | 347° |
| 2026-02-17 14:17 | 41.86924 | 12.17087 | 4903 ft | 248 kts | 348° |
| 2026-02-17 14:17 | 41.88624 | 12.16619 | 5789 ft | 251 kts | 348° |
| 2026-02-17 14:18 | 41.90339 | 12.16140 | 6727 ft | 253 kts | 347° |
| 2026-02-17 14:18 | 41.92066 | 12.15653 | 7648 ft | 255 kts | 347° |
| 2026-02-17 14:18 | 41.93806 | 12.15158 | 8550 ft | 257 kts | 346° |
| 2026-02-17 14:19 | 41.97349 | 12.14147 | 10147 ft | 269 kts | 346° |
| 2026-02-17 14:19 | 41.99256 | 12.13600 | 10420 ft | 292 kts | 346° |
| 2026-02-17 14:19 | 42.01288 | 12.13015 | 10950 ft | 303 kts | 346° |
| 2026-02-17 14:19 | 42.03357 | 12.12422 | 11751 ft | 305 kts | 346° |
| 2026-02-17 14:20 | 42.05439 | 12.11826 | 12582 ft | 306 kts | 345° |
| 2026-02-17 14:20 | 42.07527 | 12.11229 | 13420 ft | 307 kts | 345° |
| 2026-02-17 14:20 | 42.09620 | 12.10630 | 14193 ft | 308 kts | 345° |
| 2026-02-17 14:20 | 42.11717 | 12.10030 | 14931 ft | 309 kts | 345° |
| 2026-02-17 14:21 | 42.13820 | 12.09427 | 15673 ft | 309 kts | 345° |
| 2026-02-17 14:21 | 42.15926 | 12.08819 | 16427 ft | 310 kts | 345° |
| 2026-02-17 14:21 | 42.18035 | 12.08210 | 17162 ft | 311 kts | 345° |
| 2026-02-17 14:21 | 42.20152 | 12.07601 | 17841 ft | 312 kts | 345° |
| 2026-02-17 14:22 | 42.22249 | 12.06997 | 18494 ft | 313 kts | 345° |
| 2026-02-17 14:22 | 42.26482 | 12.05777 | 19951 ft | 308 kts | 344° |
| 2026-02-17 14:23 | 42.30642 | 12.04579 | 21484 ft | 303 kts | 343° |
| 2026-02-17 14:23 | 42.32693 | 12.03983 | 22183 ft | 300 kts | 342° |
| 2026-02-17 14:23 | 42.34724 | 12.03397 | 22933 ft | 297 kts | 342° |
| 2026-02-17 14:23 | 42.36740 | 12.02815 | 23600 ft | 295 kts | 341° |
| 2026-02-17 14:24 | 42.38743 | 12.02234 | 24127 ft | 295 kts | 342° |
| 2026-02-17 14:24 | 42.40750 | 12.01650 | 24577 ft | 296 kts | 342° |
| 2026-02-17 14:24 | 42.42769 | 12.01062 | 25007 ft | 297 kts | 342° |
| 2026-02-17 14:24 | 42.44795 | 12.00472 | 25450 ft | 298 kts | 342° |
| 2026-02-17 14:25 | 42.46826 | 11.99881 | 25857 ft | 299 kts | 342° |
| 2026-02-17 14:25 | 42.48868 | 11.99286 | 26267 ft | 300 kts | 342° |
| 2026-02-17 14:25 | 42.50917 | 11.98689 | 26668 ft | 302 kts | 342° |
| 2026-02-17 14:25 | 42.52974 | 11.98090 | 27057 ft | 303 kts | 342° |
| 2026-02-17 14:26 | 42.55040 | 11.97488 | 27452 ft | 304 kts | 342° |
| 2026-02-17 14:26 | 42.57115 | 11.96882 | 27823 ft | 306 kts | 342° |
| 2026-02-17 14:26 | 42.59199 | 11.96273 | 28192 ft | 307 kts | 343° |
| 2026-02-17 14:27 | 42.63391 | 11.95053 | 28987 ft | 309 kts | 343° |
| 2026-02-17 14:27 | 42.65494 | 11.94437 | 29342 ft | 310 kts | 343° |
| 2026-02-17 14:27 | 42.67597 | 11.93820 | 29676 ft | 311 kts | 343° |
| 2026-02-17 14:27 | 42.69716 | 11.93198 | 29971 ft | 312 kts | 343° |
| 2026-02-17 14:28 | 42.71848 | 11.92574 | 30210 ft | 314 kts | 343° |
| 2026-02-17 14:28 | 42.73993 | 11.91948 | 30444 ft | 316 kts | 343° |
| 2026-02-17 14:28 | 42.76152 | 11.91316 | 30686 ft | 318 kts | 343° |
| 2026-02-17 14:28 | 42.78325 | 11.90680 | 30909 ft | 320 kts | 342° |
| 2026-02-17 14:29 | 42.80507 | 11.90039 | 31122 ft | 322 kts | 343° |
| 2026-02-17 14:29 | 42.82691 | 11.89367 | 31459 ft | 320 kts | 340° |
| 2026-02-17 14:29 | 42.84739 | 11.88257 | 31773 ft | 317 kts | 332° |
| 2026-02-17 14:29 | 42.86679 | 11.86836 | 32072 ft | 317 kts | 331° |
| 2026-02-17 14:30 | 42.88624 | 11.85414 | 32366 ft | 317 kts | 331° |
| 2026-02-17 14:30 | 42.90569 | 11.83995 | 32610 ft | 317 kts | 331° |
| 2026-02-17 14:31 | 42.96391 | 11.79735 | 33431 ft | 317 kts | 330° |
| 2026-02-17 14:31 | 42.98330 | 11.78316 | 33685 ft | 317 kts | 330° |
| 2026-02-17 14:31 | 43.00277 | 11.76890 | 33911 ft | 317 kts | 330° |
| 2026-02-17 14:31 | 43.02218 | 11.75464 | 34131 ft | 317 kts | 330° |
| 2026-02-17 14:32 | 43.04165 | 11.74034 | 34361 ft | 318 kts | 330° |
| 2026-02-17 14:32 | 43.06119 | 11.72598 | 34558 ft | 319 kts | 330° |
| 2026-02-17 14:32 | 43.08076 | 11.71158 | 34769 ft | 319 kts | 330° |
| 2026-02-17 14:32 | 43.10035 | 11.69715 | 34970 ft | 320 kts | 330° |
| 2026-02-17 14:33 | 43.11994 | 11.68273 | 35171 ft | 320 kts | 330° |
| 2026-02-17 14:33 | 43.15919 | 11.65381 | 35518 ft | 321 kts | 329° |
| 2026-02-17 14:33 | 43.17876 | 11.63937 | 35584 ft | 319 kts | 329° |
| 2026-02-17 14:34 | 43.21743 | 11.61080 | 35603 ft | 317 kts | 329° |
| 2026-02-17 14:35 | 43.27371 | 11.56335 | 35655 ft | 317 kts | 326° |
| 2026-02-17 14:35 | 43.31068 | 11.53049 | 35692 ft | 317 kts | 326° |
| 2026-02-17 14:36 | 43.34776 | 11.49788 | 35734 ft | 317 kts | 326° |
| 2026-02-17 14:36 | 43.38499 | 11.46543 | 35777 ft | 317 kts | 326° |
| 2026-02-17 14:37 | 43.42219 | 11.43299 | 35822 ft | 317 kts | 326° |
| 2026-02-17 14:37 | 43.45939 | 11.40049 | 35847 ft | 316 kts | 326° |
| 2026-02-17 14:38 | 43.49651 | 11.36792 | 35846 ft | 317 kts | 326° |
| 2026-02-17 14:38 | 43.53359 | 11.33529 | 35833 ft | 317 kts | 326° |
| 2026-02-17 14:39 | 43.58939 | 11.28631 | 35794 ft | 317 kts | 326° |
| 2026-02-17 14:39 | 43.62655 | 11.25362 | 35803 ft | 317 kts | 326° |
| 2026-02-17 14:40 | 43.66368 | 11.22081 | 35800 ft | 317 kts | 326° |
| 2026-02-17 14:41 | 43.71932 | 11.17171 | 35820 ft | 316 kts | 326° |
| 2026-02-17 14:41 | 43.75636 | 11.13886 | 35819 ft | 316 kts | 326° |
| 2026-02-17 14:42 | 43.79342 | 11.10604 | 35815 ft | 316 kts | 326° |
| 2026-02-17 14:42 | 43.83039 | 11.07329 | 35813 ft | 316 kts | 326° |
| 2026-02-17 14:43 | 43.88587 | 11.02389 | 35819 ft | 316 kts | 326° |
| 2026-02-17 14:43 | 43.92261 | 10.99112 | 35825 ft | 316 kts | 326° |
| 2026-02-17 14:44 | 43.95958 | 10.95813 | 35820 ft | 316 kts | 326° |
| 2026-02-17 14:44 | 43.99656 | 10.92505 | 35819 ft | 316 kts | 326° |
| 2026-02-17 14:45 | 44.03353 | 10.89192 | 35825 ft | 316 kts | 326° |
| 2026-02-17 14:45 | 44.07048 | 10.85880 | 35830 ft | 316 kts | 326° |
| 2026-02-17 14:46 | 44.10746 | 10.82557 | 35795 ft | 317 kts | 326° |
| 2026-02-17 14:47 | 44.16332 | 10.77548 | 35791 ft | 320 kts | 326° |
| 2026-02-17 14:47 | 44.20070 | 10.74171 | 35791 ft | 320 kts | 326° |
| 2026-02-17 14:48 | 44.23816 | 10.70781 | 35804 ft | 322 kts | 326° |
| 2026-02-17 14:48 | 44.27577 | 10.67387 | 35788 ft | 321 kts | 326° |
| 2026-02-17 14:49 | 44.31335 | 10.63989 | 35804 ft | 322 kts | 326° |
| 2026-02-17 14:49 | 44.35097 | 10.60578 | 35807 ft | 322 kts | 326° |
| 2026-02-17 14:50 | 44.38859 | 10.57165 | 35760 ft | 322 kts | 326° |
| 2026-02-17 14:50 | 44.42622 | 10.53751 | 35792 ft | 323 kts | 326° |
| 2026-02-17 14:51 | 44.48260 | 10.48601 | 35803 ft | 323 kts | 325° |
| 2026-02-17 14:51 | 44.52024 | 10.45154 | 35831 ft | 323 kts | 325° |
| 2026-02-17 14:52 | 44.55789 | 10.41719 | 35830 ft | 323 kts | 326° |
| 2026-02-17 14:52 | 44.59553 | 10.38274 | 35824 ft | 323 kts | 325° |
| 2026-02-17 14:53 | 44.63317 | 10.34812 | 35814 ft | 324 kts | 325° |
| 2026-02-17 14:53 | 44.67085 | 10.31344 | 35825 ft | 324 kts | 325° |
| 2026-02-17 14:54 | 44.70862 | 10.27874 | 35840 ft | 324 kts | 325° |
| 2026-02-17 14:55 | 44.75892 | 10.23240 | 35835 ft | 326 kts | 325° |
| 2026-02-17 14:55 | 44.80310 | 10.19159 | 35835 ft | 327 kts | 325° |
| 2026-02-17 14:56 | 44.83498 | 10.16212 | 35835 ft | 327 kts | 325° |
| 2026-02-17 14:56 | 44.87310 | 10.12684 | 35835 ft | 328 kts | 325° |
| 2026-02-17 14:57 | 44.91120 | 10.09149 | 35836 ft | 328 kts | 325° |
| 2026-02-17 14:57 | 44.94926 | 10.05598 | 35871 ft | 328 kts | 325° |
| 2026-02-17 14:58 | 44.98741 | 10.02043 | 35861 ft | 328 kts | 325° |
| 2026-02-17 14:58 | 45.02557 | 9.98488 | 35788 ft | 329 kts | 325° |
| 2026-02-17 14:59 | 45.08290 | 9.93137 | 35801 ft | 330 kts | 324° |
| 2026-02-17 14:59 | 45.12095 | 9.89572 | 35804 ft | 330 kts | 324° |
| 2026-02-17 15:00 | 45.15932 | 9.85969 | 35866 ft | 331 kts | 324° |
| 2026-02-17 15:00 | 45.19776 | 9.82357 | 35845 ft | 332 kts | 324° |
| 2026-02-17 15:01 | 45.23513 | 9.78846 | 35726 ft | 310 kts | 324° |
| 2026-02-17 15:01 | 45.25284 | 9.77175 | 35422 ft | 303 kts | 324° |
| 2026-02-17 15:01 | 45.27029 | 9.75523 | 34971 ft | 300 kts | 324° |
| 2026-02-17 15:02 | 45.28760 | 9.73886 | 34477 ft | 298 kts | 325° |
| 2026-02-17 15:02 | 45.30475 | 9.72265 | 33979 ft | 296 kts | 325° |
| 2026-02-17 15:02 | 45.32186 | 9.70647 | 33430 ft | 295 kts | 325° |
| 2026-02-17 15:03 | 45.35599 | 9.67419 | 32072 ft | 295 kts | 325° |
| 2026-02-17 15:03 | 45.37313 | 9.65800 | 31484 ft | 296 kts | 326° |
| 2026-02-17 15:03 | 45.39021 | 9.64182 | 30905 ft | 295 kts | 326° |
| 2026-02-17 15:03 | 45.40724 | 9.62563 | 30290 ft | 294 kts | 326° |
| 2026-02-17 15:04 | 45.42422 | 9.60950 | 29858 ft | 293 kts | 327° |
| 2026-02-17 15:04 | 45.44125 | 9.59333 | 29724 ft | 294 kts | 327° |
| 2026-02-17 15:04 | 45.45826 | 9.57717 | 29732 ft | 295 kts | 327° |
| 2026-02-17 15:04 | 45.47536 | 9.56092 | 29727 ft | 296 kts | 327° |
| 2026-02-17 15:05 | 45.49246 | 9.54466 | 29728 ft | 296 kts | 327° |
| 2026-02-17 15:05 | 45.50961 | 9.52833 | 29728 ft | 296 kts | 327° |
| 2026-02-17 15:05 | 45.52667 | 9.51205 | 29728 ft | 296 kts | 326° |
| 2026-02-17 15:05 | 45.54377 | 9.49571 | 29728 ft | 296 kts | 327° |
| 2026-02-17 15:06 | 45.56089 | 9.47938 | 29725 ft | 296 kts | 327° |
| 2026-02-17 15:06 | 45.57799 | 9.46307 | 29728 ft | 296 kts | 326° |
| 2026-02-17 15:06 | 45.59501 | 9.44678 | 29749 ft | 292 kts | 327° |
| 2026-02-17 15:07 | 45.62838 | 9.41480 | 29734 ft | 288 kts | 327° |
| 2026-02-17 15:07 | 45.64505 | 9.39885 | 29698 ft | 289 kts | 327° |
| 2026-02-17 15:07 | 45.66181 | 9.38277 | 29710 ft | 291 kts | 327° |
| 2026-02-17 15:07 | 45.67863 | 9.36662 | 29813 ft | 292 kts | 327° |
| 2026-02-17 15:08 | 45.69548 | 9.35043 | 29810 ft | 293 kts | 327° |
| 2026-02-17 15:08 | 45.71241 | 9.33413 | 29815 ft | 293 kts | 327° |
| 2026-02-17 15:08 | 45.72932 | 9.31786 | 29819 ft | 293 kts | 327° |
| 2026-02-17 15:08 | 45.74627 | 9.30153 | 29820 ft | 294 kts | 327° |
| 2026-02-17 15:09 | 45.76325 | 9.28516 | 29832 ft | 294 kts | 326° |
| 2026-02-17 15:09 | 45.78022 | 9.26880 | 29833 ft | 294 kts | 326° |
| 2026-02-17 15:09 | 45.79723 | 9.25239 | 29899 ft | 294 kts | 327° |
| 2026-02-17 15:09 | 45.81420 | 9.23602 | 29897 ft | 294 kts | 327° |
| 2026-02-17 15:10 | 45.83108 | 9.21969 | 29892 ft | 292 kts | 327° |
| 2026-02-17 15:10 | 45.84788 | 9.20345 | 29889 ft | 291 kts | 327° |
| 2026-02-17 15:10 | 45.86464 | 9.18725 | 29879 ft | 291 kts | 327° |
| 2026-02-17 15:11 | 45.89821 | 9.15481 | 29866 ft | 291 kts | 327° |
| 2026-02-17 15:11 | 45.91494 | 9.13859 | 29871 ft | 290 kts | 327° |
| 2026-02-17 15:11 | 45.93165 | 9.12236 | 29865 ft | 289 kts | 327° |
| 2026-02-17 15:11 | 45.94826 | 9.10617 | 29817 ft | 289 kts | 326° |
| 2026-02-17 15:12 | 45.96499 | 9.08984 | 29830 ft | 292 kts | 326° |
| 2026-02-17 15:12 | 45.98180 | 9.07346 | 29836 ft | 293 kts | 326° |
| 2026-02-17 15:12 | 45.99858 | 9.05681 | 29835 ft | 292 kts | 326° |
| 2026-02-17 15:12 | 46.01514 | 9.03977 | 29935 ft | 293 kts | 326° |
| 2026-02-17 15:13 | 46.03147 | 9.02268 | 29874 ft | 287 kts | 325° |
| 2026-02-17 15:13 | 46.04759 | 9.00573 | 29862 ft | 287 kts | 325° |
| 2026-02-17 15:13 | 46.06367 | 8.98884 | 29859 ft | 286 kts | 325° |
| 2026-02-17 15:13 | 46.07974 | 8.97201 | 29861 ft | 286 kts | 326° |
| 2026-02-17 15:14 | 46.09579 | 8.95524 | 29877 ft | 285 kts | 325° |
| 2026-02-17 15:14 | 46.11192 | 8.93841 | 29873 ft | 287 kts | 326° |
| 2026-02-17 15:14 | 46.12802 | 8.92158 | 29874 ft | 286 kts | 325° |
| 2026-02-17 15:15 | 46.16086 | 8.88922 | 29879 ft | 286 kts | 333° |
| 2026-02-17 15:15 | 46.17968 | 8.87975 | 29875 ft | 290 kts | 342° |
| 2026-02-17 15:15 | 46.19984 | 8.87603 | 29871 ft | 292 kts | 346° |
| 2026-02-17 15:15 | 46.22015 | 8.87302 | 29878 ft | 295 kts | 346° |
| 2026-02-17 15:16 | 46.24056 | 8.86999 | 29912 ft | 294 kts | 346° |
| 2026-02-17 15:16 | 46.26092 | 8.86698 | 29716 ft | 293 kts | 346° |
| 2026-02-17 15:16 | 46.28103 | 8.86405 | 29414 ft | 289 kts | 346° |
| 2026-02-17 15:16 | 46.30107 | 8.86109 | 29140 ft | 290 kts | 346° |
| 2026-02-17 15:17 | 46.32068 | 8.85819 | 28866 ft | 284 kts | 346° |
| 2026-02-17 15:17 | 46.34058 | 8.85520 | 28590 ft | 283 kts | 346° |
| 2026-02-17 15:17 | 46.36013 | 8.85223 | 28313 ft | 282 kts | 346° |
| 2026-02-17 15:17 | 46.37964 | 8.84924 | 28014 ft | 282 kts | 345° |
| 2026-02-17 15:18 | 46.39925 | 8.84625 | 27765 ft | 284 kts | 345° |
| 2026-02-17 15:18 | 46.41892 | 8.84330 | 27525 ft | 284 kts | 346° |
| 2026-02-17 15:18 | 46.43825 | 8.84042 | 27270 ft | 282 kts | 345° |
| 2026-02-17 15:19 | 46.47633 | 8.83484 | 26718 ft | 267 kts | 345° |
| 2026-02-17 15:19 | 46.49454 | 8.83215 | 26409 ft | 259 kts | 345° |
| 2026-02-17 15:19 | 46.51227 | 8.82952 | 26112 ft | 253 kts | 344° |
| 2026-02-17 15:19 | 46.52951 | 8.82693 | 25821 ft | 251 kts | 344° |
| 2026-02-17 15:20 | 46.54685 | 8.82428 | 25521 ft | 250 kts | 345° |
| 2026-02-17 15:20 | 46.56421 | 8.82161 | 25231 ft | 250 kts | 345° |
| 2026-02-17 15:20 | 46.58147 | 8.81893 | 24940 ft | 250 kts | 345° |
| 2026-02-17 15:20 | 46.59884 | 8.81622 | 24547 ft | 252 kts | 345° |
| 2026-02-17 15:21 | 46.61624 | 8.81355 | 24151 ft | 251 kts | 345° |
| 2026-02-17 15:21 | 46.63353 | 8.81091 | 23785 ft | 250 kts | 345° |
| 2026-02-17 15:21 | 46.65090 | 8.80826 | 23336 ft | 252 kts | 345° |
| 2026-02-17 15:21 | 46.66841 | 8.80559 | 22877 ft | 254 kts | 345° |
| 2026-02-17 15:22 | 46.68589 | 8.80296 | 22457 ft | 251 kts | 345° |
| 2026-02-17 15:22 | 46.70322 | 8.80037 | 22053 ft | 249 kts | 345° |
| 2026-02-17 15:22 | 46.72052 | 8.79774 | 21671 ft | 250 kts | 345° |
| 2026-02-17 15:23 | 46.75518 | 8.79242 | 20876 ft | 250 kts | 346° |
| 2026-02-17 15:23 | 46.77263 | 8.78975 | 20477 ft | 254 kts | 346° |
| 2026-02-17 15:23 | 46.79031 | 8.78705 | 20060 ft | 256 kts | 346° |
| 2026-02-17 15:23 | 46.80797 | 8.78439 | 19664 ft | 256 kts | 347° |
| 2026-02-17 15:24 | 46.82578 | 8.78165 | 19268 ft | 259 kts | 347° |
| 2026-02-17 15:24 | 46.84385 | 8.77885 | 18847 ft | 262 kts | 347° |
| 2026-02-17 15:24 | 46.86211 | 8.77604 | 18448 ft | 266 kts | 347° |
| 2026-02-17 15:24 | 46.88051 | 8.77323 | 18001 ft | 266 kts | 347° |
| 2026-02-17 15:25 | 46.89890 | 8.77042 | 17586 ft | 265 kts | 347° |
| 2026-02-17 15:25 | 46.91729 | 8.76761 | 17189 ft | 267 kts | 348° |
| 2026-02-17 15:25 | 46.93574 | 8.76478 | 16778 ft | 266 kts | 347° |
| 2026-02-17 15:25 | 46.95411 | 8.76199 | 16444 ft | 263 kts | 347° |
| 2026-02-17 15:26 | 46.97240 | 8.75916 | 16117 ft | 268 kts | 347° |
| 2026-02-17 15:26 | 46.99136 | 8.75609 | 15571 ft | 279 kts | 347° |
| 2026-02-17 15:26 | 47.01091 | 8.75291 | 15142 ft | 285 kts | 347° |
| 2026-02-17 15:27 | 47.05055 | 8.74664 | 14209 ft | 288 kts | 347° |
| 2026-02-17 15:27 | 47.07058 | 8.74344 | 13687 ft | 290 kts | 346° |
| 2026-02-17 15:27 | 47.09055 | 8.73918 | 13144 ft | 291 kts | 344° |
| 2026-02-17 15:27 | 47.11043 | 8.73403 | 12953 ft | 289 kts | 343° |
| 2026-02-17 15:28 | 47.13021 | 8.72861 | 12985 ft | 290 kts | 342° |
| 2026-02-17 15:28 | 47.15010 | 8.72309 | 12812 ft | 289 kts | 342° |
| 2026-02-17 15:28 | 47.16972 | 8.71769 | 12367 ft | 288 kts | 342° |
| 2026-02-17 15:28 | 47.18939 | 8.71237 | 11962 ft | 286 kts | 343° |
| 2026-02-17 15:29 | 47.20898 | 8.70716 | 11541 ft | 285 kts | 343° |
| 2026-02-17 15:29 | 47.22845 | 8.70200 | 11096 ft | 284 kts | 343° |
| 2026-02-17 15:29 | 47.24789 | 8.69685 | 10966 ft | 285 kts | 343° |
| 2026-02-17 15:29 | 47.26715 | 8.69033 | 10992 ft | 283 kts | 336° |
| 2026-02-17 15:30 | 47.28643 | 8.68394 | 10972 ft | 291 kts | 351° |
| 2026-02-17 15:30 | 47.30676 | 8.68905 | 10739 ft | 305 kts | 15° |
| 2026-02-17 15:30 | 47.32460 | 8.70672 | 10341 ft | 319 kts | 42° |
| 2026-02-17 15:31 | 47.33931 | 8.76643 | 9896 ft | 321 kts | 90° |
| 2026-02-17 15:31 | 47.33832 | 8.79931 | 9470 ft | 321 kts | 93° |
| 2026-02-17 15:31 | 47.33681 | 8.83201 | 9084 ft | 319 kts | 94° |
| 2026-02-17 15:31 | 47.33522 | 8.86433 | 8871 ft | 312 kts | 94° |
| 2026-02-17 15:32 | 47.33364 | 8.89569 | 8731 ft | 301 kts | 94° |
| 2026-02-17 15:32 | 47.33210 | 8.92605 | 8524 ft | 293 kts | 94° |
| 2026-02-17 15:32 | 47.33165 | 8.95568 | 8257 ft | 286 kts | 78° |
| 2026-02-17 15:32 | 47.33865 | 8.98255 | 7957 ft | 273 kts | 48° |
| 2026-02-17 15:33 | 47.35200 | 9.00011 | 7561 ft | 252 kts | 17° |
| 2026-02-17 15:33 | 47.36825 | 9.00517 | 7172 ft | 225 kts | 344° |
| 2026-02-17 15:33 | 47.38162 | 8.99769 | 6971 ft | 198 kts | 318° |
| 2026-02-17 15:33 | 47.39220 | 8.98619 | 6964 ft | 181 kts | 314° |
| 2026-02-17 15:34 | 47.40185 | 8.97503 | 6914 ft | 174 kts | 314° |
| 2026-02-17 15:34 | 47.41129 | 8.96406 | 6660 ft | 172 kts | 314° |
| 2026-02-17 15:34 | 47.42066 | 8.95311 | 6392 ft | 171 kts | 312° |
| 2026-02-17 15:35 | 47.43081 | 8.92411 | 5817 ft | 161 kts | 276° |
| 2026-02-17 15:35 | 47.43201 | 8.90765 | 5492 ft | 162 kts | 277° |
| 2026-02-17 15:35 | 47.43325 | 8.89101 | 5291 ft | 163 kts | 277° |
| 2026-02-17 15:35 | 47.43448 | 8.87455 | 5104 ft | 160 kts | 277° |
| 2026-02-17 15:36 | 47.43569 | 8.85811 | 5026 ft | 162 kts | 277° |
| 2026-02-17 15:36 | 47.43691 | 8.84162 | 5013 ft | 162 kts | 277° |
| 2026-02-17 15:36 | 47.43812 | 8.82516 | 5022 ft | 157 kts | 277° |
| 2026-02-17 15:36 | 47.43924 | 8.80995 | 4982 ft | 144 kts | 277° |
| 2026-02-17 15:37 | 47.44029 | 8.79560 | 4829 ft | 138 kts | 278° |
| 2026-02-17 15:37 | 47.44132 | 8.78164 | 4622 ft | 134 kts | 277° |
| 2026-02-17 15:37 | 47.44234 | 8.76775 | 4439 ft | 138 kts | 278° |
| 2026-02-17 15:37 | 47.44336 | 8.75383 | 4234 ft | 135 kts | 279° |
| 2026-02-17 15:38 | 47.44436 | 8.74013 | 4023 ft | 133 kts | 278° |
| 2026-02-17 15:38 | 47.44534 | 8.72655 | 3837 ft | 131 kts | 278° |
| 2026-02-17 15:38 | 47.44632 | 8.71317 | 3631 ft | 131 kts | 279° |
| 2026-02-17 15:39 | 47.44825 | 8.68653 | 3222 ft | 131 kts | 279° |
| 2026-02-17 15:39 | 47.44922 | 8.67321 | 3027 ft | 130 kts | 278° |
| 2026-02-17 15:39 | 47.45017 | 8.65996 | 2828 ft | 129 kts | 278° |
| 2026-02-17 15:39 | 47.45112 | 8.64678 | 2629 ft | 129 kts | 277° |
| 2026-02-17 15:40 | 47.45207 | 8.63366 | 2412 ft | 129 kts | 276° |
| 2026-02-17 15:40 | 47.45270 | 8.62482 | 2278 ft | 132 kts | 277° |
| 2026-02-17 15:40 | 47.45367 | 8.61141 | 2069 ft | 132 kts | 277° |
| 2026-02-17 15:40 | 47.45462 | 8.59805 | 1859 ft | 131 kts | 276° |
| 2026-02-17 15:41 | 47.45552 | 8.58474 | 1677 ft | 129 kts | 276° |
| 2026-02-17 15:41 | 47.45684 | 8.56746 | 1421 ft | 127 kts | 274° |
| 2026-02-17 15:41 | 47.45737 | 8.55964 | 1399 ft | 90 kts | 275° |
| 2026-02-17 15:41 | 47.45771 | 8.55460 | 1395 ft | 24 kts | 276° |
| 2026-02-17 15:42 | 47.45787 | 8.55237 | 1395 ft | 26 kts | 276° |
| 2026-02-17 15:42 | 47.45804 | 8.54977 | 1394 ft | 25 kts | 274° |
| 2026-02-17 15:42 | 47.45753 | 8.54867 | 1400 ft | 14 kts | 161° |
| 2026-02-17 15:43 | 47.45443 | 8.55146 | 1402 ft | 24 kts | 125° |
| 2026-02-17 15:43 | 47.45381 | 8.55292 | 1402 ft | 0 kts | 119° |
| 2026-02-17 15:44 | 47.45374 | 8.55311 | 1403 ft | 6 kts | 120° |
| 2026-02-17 15:44 | 47.45354 | 8.55359 | 1405 ft | 6 kts | 121° |
| 2026-02-17 15:45 | 47.45321 | 8.55439 | 1403 ft | 10 kts | 121° |
| 2026-02-17 15:45 | 47.45302 | 8.55491 | 1400 ft | 2 kts | 118° |
| 2026-02-17 15:45 | 47.45282 | 8.55564 | 1403 ft | 11 kts | 105° |
| 2026-02-17 15:45 | 47.45273 | 8.55629 | 1397 ft | 7 kts | 97° |
| 2026-02-17 15:46 | 47.45267 | 8.55708 | 1397 ft | 7 kts | 96° |
| 2026-02-17 15:46 | 47.45263 | 8.55775 | 1397 ft | 6 kts | 96° |
| 2026-02-17 15:46 | 47.45259 | 8.55828 | 1397 ft | 5 kts | 95° |
| 2026-02-17 15:47 | 47.45259 | 8.55915 | 1402 ft | 4 kts | 63° |
| 2026-02-17 15:47 | 47.45281 | 8.55931 | 1402 ft | 6 kts | 19° |
| 2026-02-17 15:47 | 47.45316 | 8.55939 | 1402 ft | 4 kts | 6° |
| 2026-02-17 15:47 | 47.45332 | 8.55942 | 1402 ft | 0 kts | 8° |